createdAt,value
2023-04-28T00:01:24.331Z,14.31
2023-04-28T00:05:25.522Z,14.63
2023-04-28T00:09:26.147Z,14.53
2023-04-28T00:13:26.810Z,14.93
2023-04-28T00:17:29.816Z,14.93
2023-04-28T00:21:30.184Z,14.98
2023-04-28T00:25:30.400Z,15.06
2023-04-28T00:29:33.154Z,15.16
2023-04-28T00:33:35.993Z,15.31
2023-04-28T00:37:39.811Z,15.33
2023-04-28T00:41:40.073Z,15.24
2023-04-28T00:45:40.284Z,15.04
2023-04-28T00:49:43.763Z,15.10
2023-04-28T00:53:44.450Z,15.09
2023-04-28T00:57:45.536Z,15.01
2023-04-28T01:01:47.760Z,14.98
2023-04-28T01:05:51.263Z,15.00
2023-04-28T01:09:51.860Z,14.80
2023-04-28T01:13:57.599Z,14.83
2023-04-28T01:17:59.150Z,14.81
2023-04-28T01:22:01.954Z,14.70
2023-04-28T01:26:04.779Z,14.24
2023-04-28T01:30:04.993Z,14.23
2023-04-28T01:34:05.217Z,14.23
2023-04-28T01:38:05.514Z,14.20
2023-04-28T01:42:08.932Z,14.36
2023-04-28T01:46:09.075Z,14.43
2023-04-28T01:50:10.821Z,14.39
2023-04-28T01:54:10.981Z,14.34
2023-04-28T01:58:13.796Z,14.13
2023-04-28T02:02:14.221Z,14.29
2023-04-28T02:06:14.488Z,14.04
2023-04-28T02:10:14.650Z,14.09
2023-04-28T02:14:17.965Z,14.48
2023-04-28T02:18:19.270Z,14.63
2023-04-28T02:22:19.520Z,14.78
2023-04-28T02:26:19.652Z,14.69
2023-04-28T02:30:22.800Z,14.03
2023-04-28T02:34:23.573Z,13.93
2023-04-28T02:38:23.811Z,13.87
2023-04-28T02:42:24.093Z,13.88
2023-04-28T02:46:27.204Z,13.72
2023-04-28T02:50:27.430Z,13.67
2023-04-28T02:54:30.342Z,13.66
2023-04-28T02:58:31.243Z,13.67
2023-04-28T03:02:34.134Z,13.21
2023-04-28T03:06:34.588Z,13.64
2023-04-28T03:10:34.863Z,13.69
2023-04-28T03:14:36.614Z,13.91
2023-04-28T03:18:39.407Z,13.95
2023-04-28T03:22:39.856Z,13.98
2023-04-28T03:26:40.122Z,13.91
2023-04-28T03:30:40.305Z,14.15
2023-04-28T03:34:43.157Z,14.06
2023-04-28T03:38:43.411Z,13.88
2023-04-28T03:42:43.575Z,13.81
2023-04-28T03:46:47.009Z,14.12
2023-04-28T03:50:49.870Z,14.29
2023-04-28T03:54:50.485Z,14.40
2023-04-28T03:58:53.817Z,14.35
2023-04-28T04:02:54.154Z,14.43
2023-04-28T04:06:57.230Z,14.26
2023-04-28T04:10:57.552Z,14.52
2023-04-28T04:14:57.905Z,14.68
2023-04-28T04:18:58.291Z,14.89
2023-04-28T04:23:08.864Z,14.59
2023-04-28T04:27:09.154Z,14.57
2023-04-28T04:31:15.480Z,14.78
2023-04-28T04:35:17.030Z,14.84
2023-04-28T04:39:19.857Z,14.94
2023-04-28T04:43:21.576Z,14.74
2023-04-28T04:47:24.254Z,14.98
2023-04-28T04:51:24.575Z,14.77
2023-04-28T04:55:28.198Z,14.86
2023-04-28T04:59:28.868Z,14.46
2023-04-28T05:03:35.502Z,15.24
2023-04-28T05:07:36.028Z,15.04
2023-04-28T05:11:38.995Z,15.04
2023-04-28T05:15:39.748Z,15.06
2023-04-28T05:20:12.841Z,15.38
2023-04-28T05:24:13.461Z,14.87
2023-04-28T05:28:17.076Z,15.30
2023-04-28T05:32:18.539Z,15.48
2023-04-28T05:36:19.142Z,15.38
2023-04-28T05:40:20.203Z,15.51
2023-04-28T05:44:23.246Z,15.51
2023-04-28T05:48:24.115Z,15.57
2023-04-28T05:52:24.333Z,15.34
2023-04-28T05:56:24.566Z,15.66
2023-04-28T06:00:27.789Z,15.66
2023-04-28T06:04:32.322Z,15.82
2023-04-28T06:08:33.658Z,16.00
2023-04-28T06:12:33.792Z,15.90
2023-04-28T06:16:37.195Z,15.70
2023-04-28T06:20:37.363Z,15.87
2023-04-28T06:24:37.654Z,15.95
2023-04-28T06:28:41.297Z,15.89
2023-04-28T06:32:46.926Z,16.17
2023-04-28T06:36:47.225Z,16.38
2023-04-28T06:40:48.135Z,16.71
2023-04-28T06:44:49.020Z,16.79
2023-04-28T06:48:51.883Z,16.97
2023-04-28T06:52:52.101Z,17.10
2023-04-28T06:56:52.214Z,17.25
2023-04-28T07:00:52.512Z,17.44
2023-04-28T07:04:55.733Z,17.13
2023-04-28T07:08:56.015Z,17.22
2023-04-28T07:12:56.261Z,17.58
2023-04-28T07:16:56.748Z,17.39
2023-04-28T07:20:59.695Z,17.83
2023-04-28T07:24:59.872Z,17.93
2023-04-28T07:29:00.124Z,18.26
2023-04-28T07:33:00.625Z,18.16
2023-04-28T07:37:03.910Z,18.15
2023-04-28T07:41:05.744Z,18.78
2023-04-28T07:45:09.803Z,18.40
2023-04-28T07:49:10.067Z,18.93
2023-04-28T07:53:13.043Z,18.88
2023-04-28T07:57:13.331Z,18.78
2023-04-28T08:01:13.531Z,18.32
2023-04-28T08:05:14.643Z,18.14
2023-04-28T08:09:17.664Z,17.74
2023-04-28T08:13:18.439Z,17.35
2023-04-28T08:17:18.644Z,16.90
2023-04-28T08:21:18.889Z,16.88
2023-04-28T08:25:21.719Z,16.79
2023-04-28T08:29:23.173Z,16.83
2023-04-28T08:33:24.382Z,17.00
2023-04-28T08:37:25.037Z,17.08
2023-04-28T08:41:30.169Z,16.84
2023-04-28T08:45:33.341Z,16.69
2023-04-28T08:49:39.527Z,16.87
2023-04-28T08:54:08.768Z,16.96
2023-04-28T08:58:07.831Z,17.13
2023-04-28T09:02:08.588Z,16.64
2023-04-28T09:06:09.003Z,16.61
2023-04-28T09:10:27.325Z,17.04
2023-04-28T09:14:31.538Z,17.50
2023-04-28T09:18:33.168Z,17.52
2023-04-28T09:22:35.650Z,17.80
2023-04-28T09:26:55.337Z,17.69
2023-04-28T09:30:58.913Z,17.67
2023-04-28T09:34:59.881Z,17.63
2023-04-28T09:39:02.198Z,17.02
2023-04-28T09:43:15.105Z,16.68
2023-04-28T09:47:26.093Z,16.71
2023-04-28T09:51:26.946Z,16.97
2023-04-28T09:55:29.366Z,16.60
2023-04-28T09:59:32.359Z,17.05
2023-04-28T10:03:35.567Z,17.03
2023-04-28T10:07:38.087Z,16.91
2023-04-28T10:12:15.890Z,16.99
2023-04-28T10:16:18.188Z,16.94
2023-04-28T10:20:23.679Z,16.84
2023-04-28T10:24:33.809Z,16.69
2023-04-28T10:28:35.131Z,16.42
2023-04-28T10:32:35.709Z,16.73
2023-04-28T10:36:57.767Z,16.63
2023-04-28T10:41:05.485Z,16.49
2023-04-28T10:45:05.951Z,16.79
2023-04-28T10:49:06.457Z,16.71
2023-04-28T10:53:12.232Z,16.86
2023-04-28T10:57:24.935Z,17.11
2023-04-28T11:01:35.351Z,17.38
2023-04-28T11:05:38.319Z,17.27
2023-04-28T11:09:59.114Z,17.52
2023-04-28T11:14:37.847Z,17.15
2023-04-28T11:19:07.665Z,17.77
2023-04-28T11:23:13.753Z,17.17
2023-04-28T11:27:31.291Z,16.97
2023-04-28T11:31:37.087Z,17.27
2023-04-28T11:35:46.499Z,16.87
2023-04-28T11:39:52.305Z,17.05
2023-04-28T11:43:57.058Z,17.29
2023-04-28T11:48:01.449Z,17.02
2023-04-28T11:52:10.788Z,16.91
2023-04-28T11:56:14.095Z,17.07
2023-04-28T12:00:23.485Z,17.62
2023-04-28T12:04:38.729Z,17.61
2023-04-28T12:08:43.742Z,17.68
2023-04-28T12:16:50.929Z,17.98
2023-04-28T12:20:51.845Z,17.82
2023-04-28T12:25:08.357Z,17.93
2023-04-28T12:29:10.341Z,18.01
2023-04-28T12:33:27.184Z,17.81
2023-04-28T12:37:27.347Z,18.21
2023-04-28T12:41:27.472Z,18.34
2023-04-28T12:45:27.904Z,18.45
2023-04-28T12:49:31.761Z,18.79
2023-04-28T12:53:31.921Z,18.31
2023-04-28T12:57:32.961Z,18.03
2023-04-28T13:01:34.071Z,18.23
2023-04-28T13:05:37.667Z,18.13
2023-04-28T13:09:38.579Z,17.75
2023-04-28T13:13:39.047Z,17.72
2023-04-28T13:17:39.942Z,17.81
2023-04-28T13:21:43.347Z,17.80
2023-04-28T13:25:44.744Z,17.97
2023-04-28T13:29:44.844Z,17.90
2023-04-28T13:33:45.440Z,18.15
2023-04-28T13:37:48.608Z,18.47
2023-04-28T13:41:49.190Z,18.21
2023-04-28T13:45:50.418Z,18.46
2023-04-28T13:49:50.936Z,18.85
2023-04-28T13:53:53.932Z,18.90
2023-04-28T14:03:05.989Z,19.72
2023-04-28T14:07:06.392Z,19.28
2023-04-28T14:11:09.629Z,19.15
2023-04-28T14:15:13.754Z,18.73
2023-04-28T14:19:17.542Z,18.88
2023-04-28T14:23:17.785Z,19.11
2023-04-28T14:27:20.618Z,19.11
2023-04-28T14:31:20.871Z,19.22
2023-04-28T14:35:22.142Z,19.05
2023-04-28T14:39:22.421Z,19.52
2023-04-28T14:43:26.184Z,19.39
2023-04-28T14:47:26.991Z,19.54
2023-04-28T14:51:27.905Z,19.63
2023-04-28T14:55:28.347Z,19.80
2023-04-28T14:59:31.261Z,19.63
2023-04-28T15:03:31.473Z,19.79
2023-04-28T15:07:32.779Z,19.77
2023-04-28T15:11:32.939Z,19.90
2023-04-28T15:15:35.815Z,20.02
2023-04-28T15:19:36.005Z,20.25
2023-04-28T15:23:36.178Z,20.26
2023-04-28T15:27:36.695Z,20.30
2023-04-28T15:31:41.280Z,20.71
2023-04-28T15:35:41.473Z,21.05
2023-04-28T15:39:41.603Z,21.36
2023-04-28T15:43:41.779Z,21.52
2023-04-28T15:47:46.932Z,21.79
2023-04-28T15:51:47.117Z,21.70
2023-04-28T15:55:47.370Z,21.30
2023-04-28T15:59:47.815Z,21.32
2023-04-28T16:03:50.916Z,21.31
2023-04-28T16:07:53.022Z,21.18
2023-04-28T16:11:53.331Z,21.13
2023-04-28T16:15:55.165Z,20.99
2023-04-28T16:19:58.086Z,20.68
2023-04-28T16:24:01.325Z,20.69
2023-04-28T16:28:02.464Z,20.54
2023-04-28T16:32:03.013Z,20.66
2023-04-28T16:36:06.839Z,20.43
2023-04-28T16:40:12.250Z,20.43
2023-04-28T16:44:12.862Z,20.41
2023-04-28T16:48:13.109Z,20.50
2023-04-28T16:52:16.871Z,20.42
2023-04-28T16:56:17.258Z,20.66
2023-04-28T17:00:19.343Z,21.38
2023-04-28T17:04:19.797Z,21.15
2023-04-28T17:08:23.018Z,20.58
2023-04-28T17:12:23.732Z,20.46
2023-04-28T17:16:24.081Z,20.29
2023-04-28T17:20:25.042Z,20.31
2023-04-28T17:24:28.400Z,20.36
2023-04-28T17:28:29.336Z,20.06
2023-04-28T17:32:31.230Z,19.73
2023-04-28T17:36:33.546Z,19.18
2023-04-28T17:40:45.032Z,19.28
2023-04-28T17:44:45.802Z,20.06
2023-04-28T17:48:49.198Z,19.91
2023-04-28T17:52:50.226Z,20.25
2023-04-28T17:56:55.013Z,19.05
2023-04-28T18:01:04.156Z,20.09
2023-04-28T18:05:08.265Z,20.05
2023-04-28T18:09:11.006Z,19.44
2023-04-28T18:13:14.442Z,19.40
2023-04-28T18:17:15.549Z,18.88
2023-04-28T18:21:16.747Z,19.31
2023-04-28T18:25:19.587Z,18.97
2023-04-28T18:29:23.080Z,19.28
2023-04-28T18:33:28.813Z,18.69
2023-04-28T18:37:37.301Z,18.89
2023-04-28T18:41:38.308Z,19.26
2023-04-28T18:45:44.305Z,19.07
2023-04-28T18:49:49.081Z,18.81
2023-04-28T18:53:50.674Z,18.69
2023-04-28T18:57:51.157Z,18.96
2023-04-28T19:01:53.960Z,18.90
2023-04-28T19:05:57.355Z,18.86
2023-04-28T19:10:00.394Z,19.07
2023-04-28T19:14:01.652Z,19.02
2023-04-28T19:18:06.882Z,19.25
2023-04-28T19:22:07.777Z,19.23
2023-04-28T19:26:08.162Z,19.15
2023-04-28T19:30:13.058Z,19.29
2023-04-28T19:34:16.617Z,19.29
2023-04-28T19:38:23.457Z,19.32
2023-04-28T19:42:24.965Z,18.83
2023-04-28T19:46:32.536Z,18.88
2023-04-28T19:50:38.165Z,18.61
2023-04-28T19:54:40.234Z,18.95
2023-04-28T19:58:41.302Z,18.92
2023-04-28T20:02:43.009Z,19.08
2023-04-28T20:06:46.609Z,19.01
2023-04-28T20:10:53.616Z,18.85
2023-04-28T20:14:54.923Z,18.68
2023-04-28T20:18:58.071Z,18.54
2023-04-28T20:23:01.658Z,19.01
2023-04-28T20:27:02.754Z,18.45
2023-04-28T20:31:07.866Z,18.57
2023-04-28T20:35:09.688Z,18.48
2023-04-28T20:39:18.590Z,18.23
2023-04-28T20:43:24.637Z,18.03
2023-04-28T20:47:25.094Z,17.95
2023-04-28T20:51:25.609Z,18.84
2023-04-28T20:55:29.033Z,19.24
2023-04-28T20:59:32.267Z,19.05
2023-04-28T21:03:33.665Z,18.72
2023-04-28T21:07:34.144Z,18.72
2023-04-28T21:11:37.603Z,18.62
2023-04-28T21:15:40.544Z,18.55
2023-04-28T21:19:40.762Z,18.34
2023-04-28T21:23:42.993Z,18.39
2023-04-28T21:27:55.617Z,18.37
2023-04-28T21:31:55.958Z,18.36
2023-04-28T21:35:56.287Z,18.22
2023-04-28T21:39:59.087Z,18.19
2023-04-28T21:44:02.650Z,18.26
2023-04-28T21:48:03.016Z,18.32
2023-04-28T21:52:03.480Z,18.07
2023-04-28T21:56:04.418Z,17.80
2023-04-28T22:00:13.129Z,17.80
2023-04-28T22:04:16.945Z,17.89
2023-04-28T22:08:17.816Z,17.71
2023-04-28T22:12:19.015Z,17.68
2023-04-28T22:16:21.873Z,17.51
2023-04-28T22:20:22.481Z,17.29
2023-04-28T22:24:23.279Z,17.47
2023-04-28T22:28:24.199Z,17.41
2023-04-28T22:32:27.763Z,17.17
2023-04-28T22:36:27.948Z,17.18
2023-04-28T22:40:28.113Z,17.11
2023-04-28T22:44:28.675Z,17.31
2023-04-28T22:48:31.536Z,17.36
2023-04-28T22:52:32.129Z,17.13
2023-04-28T22:56:32.352Z,17.12
2023-04-28T23:00:33.968Z,17.19
2023-04-28T23:04:40.223Z,17.46
2023-04-28T23:08:44.564Z,17.25
2023-04-28T23:12:45.142Z,17.13
2023-04-28T23:16:45.693Z,17.11
2023-04-28T23:20:50.808Z,17.09
2023-04-28T23:24:51.821Z,17.21
2023-04-28T23:28:52.075Z,17.13
2023-04-28T23:32:52.691Z,16.97
2023-04-28T23:36:55.498Z,16.87
2023-04-28T23:40:55.585Z,17.04
2023-04-28T23:44:56.084Z,17.09
2023-04-28T23:48:56.486Z,17.38
2023-04-28T23:52:59.189Z,17.45
2023-04-28T23:56:59.311Z,17.57
